sensor_id;sensor_type;location;lat;lon;timestamp;pressure;altitude;pressure_sealevel;temperature;humidity
50854;BME280;44154;45.506;-122.806;2022-08-03T00:00:15;100654.06;;;27.47;41.79
50854;BME280;44154;45.506;-122.806;2022-08-03T00:02:41;100647.44;;;27.63;41.84
50854;BME280;44154;45.506;-122.806;2022-08-03T00:05:07;100646.03;;;27.76;42.03
50854;BME280;44154;45.506;-122.806;2022-08-03T00:07:34;100652.25;;;27.97;41.90
50854;BME280;44154;45.506;-122.806;2022-08-03T00:10:00;100651.72;;;28.06;42.10
50854;BME280;44154;45.506;-122.806;2022-08-03T00:12:26;100643.41;;;28.16;41.84
50854;BME280;44154;45.506;-122.806;2022-08-03T00:14:52;100640.56;;;28.31;41.99
50854;BME280;44154;45.506;-122.806;2022-08-03T00:17:18;100635.56;;;28.38;41.78
50854;BME280;44154;45.506;-122.806;2022-08-03T00:19:46;100625.06;;;28.46;41.58
50854;BME280;44154;45.506;-122.806;2022-08-03T00:22:12;100603.84;;;28.46;41.85
50854;BME280;44154;45.506;-122.806;2022-08-03T00:24:39;100621.94;;;28.63;41.68
50854;BME280;44154;45.506;-122.806;2022-08-03T00:27:05;100629.31;;;28.72;41.74
50854;BME280;44154;45.506;-122.806;2022-08-03T00:29:31;100618.78;;;28.80;41.68
50854;BME280;44154;45.506;-122.806;2022-08-03T00:31:57;100620.13;;;28.82;41.72
50854;BME280;44154;45.506;-122.806;2022-08-03T00:34:23;100607.38;;;28.92;41.85
50854;BME280;44154;45.506;-122.806;2022-08-03T00:36:50;100588.91;;;28.92;41.40
50854;BME280;44154;45.506;-122.806;2022-08-03T00:39:16;100597.94;;;28.98;41.48
50854;BME280;44154;45.506;-122.806;2022-08-03T00:41:42;100610.00;;;29.07;41.62
50854;BME280;44154;45.506;-122.806;2022-08-03T00:44:08;100604.19;;;29.09;41.04
50854;BME280;44154;45.506;-122.806;2022-08-03T00:46:34;100591.53;;;29.07;41.45
50854;BME280;44154;45.506;-122.806;2022-08-03T00:49:01;100613.16;;;29.24;41.64
50854;BME280;44154;45.506;-122.806;2022-08-03T00:51:27;100605.19;;;29.23;41.19
50854;BME280;44154;45.506;-122.806;2022-08-03T00:53:53;100608.94;;;29.32;41.56
50854;BME280;44154;45.506;-122.806;2022-08-03T00:56:19;100603.19;;;29.29;41.37
50854;BME280;44154;45.506;-122.806;2022-08-03T00:58:46;100611.06;;;29.40;41.64
50854;BME280;44154;45.506;-122.806;2022-08-03T01:01:13;100607.41;;;29.45;41.61
50854;BME280;44154;45.506;-122.806;2022-08-03T01:03:40;100605.19;;;29.47;41.75
50854;BME280;44154;45.506;-122.806;2022-08-03T01:06:07;100603.19;;;29.53;41.62
50854;BME280;44154;45.506;-122.806;2022-08-03T01:16:26;100600.88;;;29.60;41.79
50854;BME280;44154;45.506;-122.806;2022-08-03T01:24:57;100592.72;;;29.26;40.21
50854;BME280;44154;45.506;-122.806;2022-08-03T01:27:56;100590.94;;;29.11;40.10
50854;BME280;44154;45.506;-122.806;2022-08-03T01:30:31;100577.78;;;29.02;40.10
50854;BME280;44154;45.506;-122.806;2022-08-03T01:33:04;100583.38;;;28.97;40.30
50854;BME280;44154;45.506;-122.806;2022-08-03T01:35:33;100576.72;;;28.98;40.72
50854;BME280;44154;45.506;-122.806;2022-08-03T01:38:03;100558.09;;;28.90;41.24
50854;BME280;44154;45.506;-122.806;2022-08-03T01:40:33;100582.97;;;29.09;40.54
50854;BME280;44154;45.506;-122.806;2022-08-03T01:43:02;100577.75;;;29.07;40.41
50854;BME280;44154;45.506;-122.806;2022-08-03T01:45:29;100568.09;;;29.10;40.86
50854;BME280;44154;45.506;-122.806;2022-08-03T01:47:57;100563.97;;;29.07;40.47
50854;BME280;44154;45.506;-122.806;2022-08-03T01:50:27;100569.97;;;29.15;40.19
50854;BME280;44154;45.506;-122.806;2022-08-03T01:52:55;100572.41;;;29.16;40.29
50854;BME280;44154;45.506;-122.806;2022-08-03T01:55:24;100577.34;;;29.19;39.93
50854;BME280;44154;45.506;-122.806;2022-08-03T01:57:55;100568.25;;;29.19;40.05
50854;BME280;44154;45.506;-122.806;2022-08-03T02:00:23;100567.72;;;29.17;39.66
50854;BME280;44154;45.506;-122.806;2022-08-03T02:02:51;100577.34;;;29.24;39.55
50854;BME280;44154;45.506;-122.806;2022-08-03T02:05:19;100572.94;;;29.23;39.49
50854;BME280;44154;45.506;-122.806;2022-08-03T02:07:47;100576.19;;;29.26;39.48
50854;BME280;44154;45.506;-122.806;2022-08-03T02:10:15;100564.91;;;29.22;39.25
50854;BME280;44154;45.506;-122.806;2022-08-03T02:12:45;100566.00;;;29.26;39.09
50854;BME280;44154;45.506;-122.806;2022-08-03T02:15:14;100575.09;;;29.27;38.99
50854;BME280;44154;45.506;-122.806;2022-08-03T02:17:41;100556.66;;;29.22;39.28
50854;BME280;44154;45.506;-122.806;2022-08-03T02:20:11;100554.47;;;29.19;38.98
50854;BME280;44154;45.506;-122.806;2022-08-03T02:22:42;100562.13;;;29.27;38.96
50854;BME280;44154;45.506;-122.806;2022-08-03T02:25:11;100550.59;;;29.20;39.02
50854;BME280;44154;45.506;-122.806;2022-08-03T02:27:45;100548.69;;;29.20;39.12
50854;BME280;44154;45.506;-122.806;2022-08-03T02:30:14;100562.59;;;29.34;39.56
50854;BME280;44154;45.506;-122.806;2022-08-03T02:32:43;100549.94;;;29.33;39.92
50854;BME280;44154;45.506;-122.806;2022-08-03T02:35:14;100564.38;;;29.49;40.26
50854;BME280;44154;45.506;-122.806;2022-08-03T02:37:49;100566.47;;;29.57;40.33
50854;BME280;44154;45.506;-122.806;2022-08-03T02:40:18;100567.75;;;29.65;40.67
50854;BME280;44154;45.506;-122.806;2022-08-03T02:42:46;100561.03;;;29.71;41.36
50854;BME280;44154;45.506;-122.806;2022-08-03T02:45:16;100559.13;;;29.72;41.29
50854;BME280;44154;45.506;-122.806;2022-08-03T02:47:44;100557.16;;;29.72;42.72
50854;BME280;44154;45.506;-122.806;2022-08-03T02:50:15;100559.28;;;29.81;42.86
50854;BME280;44154;45.506;-122.806;2022-08-03T02:52:43;100563.09;;;29.85;41.53
50854;BME280;44154;45.506;-122.806;2022-08-03T02:55:11;100567.44;;;29.91;42.03
50854;BME280;44154;45.506;-122.806;2022-08-03T02:57:40;100553.69;;;29.86;41.41
50854;BME280;44154;45.506;-122.806;2022-08-03T03:00:08;100538.31;;;29.80;41.11
50854;BME280;44154;45.506;-122.806;2022-08-03T03:02:35;100560.72;;;29.97;41.03
50854;BME280;44154;45.506;-122.806;2022-08-03T03:05:03;100560.13;;;30.00;41.05
50854;BME280;44154;45.506;-122.806;2022-08-03T03:07:30;100534.84;;;29.93;41.76
50854;BME280;44154;45.506;-122.806;2022-08-03T03:09:57;100549.91;;;30.01;42.05
50854;BME280;44154;45.506;-122.806;2022-08-03T03:12:25;100560.06;;;30.05;41.69
50854;BME280;44154;45.506;-122.806;2022-08-03T03:14:51;100544.63;;;30.04;41.52
50854;BME280;44154;45.506;-122.806;2022-08-03T03:17:18;100538.03;;;30.00;41.44
50854;BME280;44154;45.506;-122.806;2022-08-03T03:19:46;100540.75;;;30.05;40.99
50854;BME280;44154;45.506;-122.806;2022-08-03T03:22:14;100544.09;;;30.02;40.32
50854;BME280;44154;45.506;-122.806;2022-08-03T03:24:42;100559.75;;;30.07;40.23
50854;BME280;44154;45.506;-122.806;2022-08-03T03:27:09;100541.91;;;29.99;39.67
50854;BME280;44154;45.506;-122.806;2022-08-03T03:29:36;100546.41;;;29.95;39.84
50854;BME280;44154;45.506;-122.806;2022-08-03T03:32:02;100543.97;;;29.93;39.58
50854;BME280;44154;45.506;-122.806;2022-08-03T03:34:30;100563.72;;;30.01;39.49
50854;BME280;44154;45.506;-122.806;2022-08-03T03:36:57;100557.97;;;29.97;38.95
50854;BME280;44154;45.506;-122.806;2022-08-03T03:39:23;100549.97;;;29.96;39.03
50854;BME280;44154;45.506;-122.806;2022-08-03T03:41:50;100557.97;;;29.97;39.12
50854;BME280;44154;45.506;-122.806;2022-08-03T03:44:17;100541.84;;;29.85;38.72
50854;BME280;44154;45.506;-122.806;2022-08-03T03:46:43;100549.19;;;29.95;38.84
50854;BME280;44154;45.506;-122.806;2022-08-03T03:49:11;100556.56;;;30.00;38.73
50854;BME280;44154;45.506;-122.806;2022-08-03T03:51:37;100557.97;;;29.97;38.63
50854;BME280;44154;45.506;-122.806;2022-08-03T03:54:04;100574.97;;;30.04;38.76
50854;BME280;44154;45.506;-122.806;2022-08-03T03:56:32;100573.31;;;30.03;38.95
50854;BME280;44154;45.506;-122.806;2022-08-03T03:58:59;100571.69;;;30.02;38.77
50854;BME280;44154;45.506;-122.806;2022-08-03T04:01:25;100577.13;;;30.07;38.86
50854;BME280;44154;45.506;-122.806;2022-08-03T04:03:51;100585.41;;;30.07;39.03
50854;BME280;44154;45.506;-122.806;2022-08-03T04:06:18;100572.25;;;29.99;39.09
50854;BME280;44154;45.506;-122.806;2022-08-03T04:09:03;100578.03;;;30.03;39.16
50854;BME280;44154;45.506;-122.806;2022-08-03T04:11:53;100579.44;;;30.00;38.85
50854;BME280;44154;45.506;-122.806;2022-08-03T04:14:34;100595.34;;;30.08;39.00
50854;BME280;44154;45.506;-122.806;2022-08-03T04:17:03;100598.41;;;30.07;38.90
50854;BME280;44154;45.506;-122.806;2022-08-03T04:19:37;100597.84;;;30.05;39.02
50854;BME280;44154;45.506;-122.806;2022-08-03T04:22:08;100600.91;;;30.03;38.99
50854;BME280;44154;45.506;-122.806;2022-08-03T04:24:50;100589.97;;;29.98;38.77
50854;BME280;44154;45.506;-122.806;2022-08-03T04:27:22;100596.00;;;30.00;39.08
50854;BME280;44154;45.506;-122.806;2022-08-03T04:29:52;100600.91;;;30.03;39.30
50854;BME280;44154;45.506;-122.806;2022-08-03T04:32:22;100594.94;;;29.96;39.09
50854;BME280;44154;45.506;-122.806;2022-08-03T04:34:51;100607.63;;;29.97;38.88
50854;BME280;44154;45.506;-122.806;2022-08-03T04:40:08;100594.00;;;29.82;37.97
50854;BME280;44154;45.506;-122.806;2022-08-03T04:42:36;100610.16;;;29.93;38.38
50854;BME280;44154;45.506;-122.806;2022-08-03T04:45:05;100597.31;;;29.84;38.00
50854;BME280;44154;45.506;-122.806;2022-08-03T04:47:32;100606.06;;;29.91;37.90
50854;BME280;44154;45.506;-122.806;2022-08-03T04:50:03;100617.59;;;29.93;37.88
50854;BME280;44154;45.506;-122.806;2022-08-03T04:52:29;100600.84;;;29.89;38.02
50854;BME280;44154;45.506;-122.806;2022-08-03T04:54:56;100618.38;;;29.99;37.85
50854;BME280;44154;45.506;-122.806;2022-08-03T04:57:22;100605.16;;;29.96;37.54
50854;BME280;44154;45.506;-122.806;2022-08-03T04:59:49;100606.81;;;29.97;37.66
50854;BME280;44154;45.506;-122.806;2022-08-03T05:02:19;100602.16;;;29.92;37.43
50854;BME280;44154;45.506;-122.806;2022-08-03T05:04:46;100608.81;;;29.91;37.43
50854;BME280;44154;45.506;-122.806;2022-08-03T05:07:13;100628.06;;;29.96;37.39
50854;BME280;44154;45.506;-122.806;2022-08-03T05:09:39;100627.00;;;29.92;37.31
50854;BME280;44154;45.506;-122.806;2022-08-03T05:12:06;100612.75;;;29.85;37.09
50854;BME280;44154;45.506;-122.806;2022-08-03T05:14:33;100621.47;;;29.92;36.91
50854;BME280;44154;45.506;-122.806;2022-08-03T05:17:03;100620.38;;;29.93;36.84
50854;BME280;44154;45.506;-122.806;2022-08-03T05:19:29;100608.38;;;29.84;36.59
50854;BME280;44154;45.506;-122.806;2022-08-03T05:21:55;100618.81;;;29.87;36.84
50854;BME280;44154;45.506;-122.806;2022-08-03T05:24:21;100631.09;;;29.95;36.73
50854;BME280;44154;45.506;-122.806;2022-08-03T05:26:47;100619.00;;;29.90;36.73
50854;BME280;44154;45.506;-122.806;2022-08-03T05:29:14;100624.22;;;29.92;37.01
50854;BME280;44154;45.506;-122.806;2022-08-03T05:31:40;100617.09;;;29.91;37.13
50854;BME280;44154;45.506;-122.806;2022-08-03T05:34:06;100628.94;;;29.91;37.31
50854;BME280;44154;45.506;-122.806;2022-08-03T05:36:32;100632.81;;;29.90;36.96
50854;BME280;44154;45.506;-122.806;2022-08-03T05:38:59;100621.06;;;29.80;36.98
50854;BME280;44154;45.506;-122.806;2022-08-03T05:41:25;100618.91;;;29.76;37.15
50854;BME280;44154;45.506;-122.806;2022-08-03T05:43:52;100627.06;;;29.87;36.92
50854;BME280;44154;45.506;-122.806;2022-08-03T05:46:20;100637.00;;;29.88;36.85
50854;BME280;44154;45.506;-122.806;2022-08-03T05:48:46;100621.84;;;29.85;36.79
50854;BME280;44154;45.506;-122.806;2022-08-03T05:51:12;100617.50;;;29.79;36.75
50854;BME280;44154;45.506;-122.806;2022-08-03T05:53:40;100629.28;;;29.85;36.77
50854;BME280;44154;45.506;-122.806;2022-08-03T05:56:06;100638.91;;;29.87;37.04
50854;BME280;44154;45.506;-122.806;2022-08-03T05:58:32;100630.69;;;29.82;36.93
50854;BME280;44154;45.506;-122.806;2022-08-03T06:00:58;100635.94;;;29.84;36.89
50854;BME280;44154;45.506;-122.806;2022-08-03T06:03:25;100626.88;;;29.78;36.72
50854;BME280;44154;45.506;-122.806;2022-08-03T06:05:53;100618.38;;;29.74;36.82
50854;BME280;44154;45.506;-122.806;2022-08-03T06:08:23;100625.53;;;29.75;36.73
50854;BME280;44154;45.506;-122.806;2022-08-03T06:10:49;100618.66;;;29.73;36.91
50854;BME280;44154;45.506;-122.806;2022-08-03T06:13:16;100626.03;;;29.77;37.01
50854;BME280;44154;45.506;-122.806;2022-08-03T06:15:42;100636.06;;;29.73;37.18
50854;BME280;44154;45.506;-122.806;2022-08-03T06:18:08;100621.78;;;29.66;37.07
50854;BME280;44154;45.506;-122.806;2022-08-03T06:20:34;100612.75;;;29.61;37.03
50854;BME280;44154;45.506;-122.806;2022-08-03T06:23:00;100626.25;;;29.62;37.50
50854;BME280;44154;45.506;-122.806;2022-08-03T06:25:27;100619.09;;;29.61;37.65
50854;BME280;44154;45.506;-122.806;2022-08-03T06:27:53;100622.09;;;29.65;37.28
50854;BME280;44154;45.506;-122.806;2022-08-03T06:30:19;100619.59;;;29.63;37.14
50854;BME280;44154;45.506;-122.806;2022-08-03T06:32:45;100616.09;;;29.57;37.03
50854;BME280;44154;45.506;-122.806;2022-08-03T06:35:12;100610.94;;;29.51;37.24
50854;BME280;44154;45.506;-122.806;2022-08-03T06:37:46;100620.47;;;29.58;37.18
50854;BME280;44154;45.506;-122.806;2022-08-03T06:40:14;100627.94;;;29.58;37.39
50854;BME280;44154;45.506;-122.806;2022-08-03T06:42:41;100624.66;;;29.56;37.18
50854;BME280;44154;45.506;-122.806;2022-08-03T06:45:09;100610.69;;;29.47;37.43
50854;BME280;44154;45.506;-122.806;2022-08-03T06:47:36;100617.50;;;29.55;37.68
50854;BME280;44154;45.506;-122.806;2022-08-03T06:50:04;100620.31;;;29.50;37.15
50854;BME280;44154;45.506;-122.806;2022-08-03T06:52:31;100616.75;;;29.49;37.37
50854;BME280;44154;45.506;-122.806;2022-08-03T06:54:57;100614.31;;;29.42;37.22
50854;BME280;44154;45.506;-122.806;2022-08-03T06:57:24;100632.75;;;29.47;37.28
50854;BME280;44154;45.506;-122.806;2022-08-03T06:59:50;100627.81;;;29.44;37.27
50854;BME280;44154;45.506;-122.806;2022-08-03T07:02:16;100612.22;;;29.34;37.35
50854;BME280;44154;45.506;-122.806;2022-08-03T07:04:49;100621.53;;;29.38;37.17
50854;BME280;44154;45.506;-122.806;2022-08-03T07:07:15;100626.53;;;29.36;37.23
50854;BME280;44154;45.506;-122.806;2022-08-03T07:09:42;100629.59;;;29.35;37.09
50854;BME280;44154;45.506;-122.806;2022-08-03T07:12:08;100624.66;;;29.32;37.40
50854;BME280;44154;45.506;-122.806;2022-08-03T07:14:34;100637.84;;;29.35;37.50
50854;BME280;44154;45.506;-122.806;2022-08-03T07:17:00;100637.31;;;29.33;37.18
50854;BME280;44154;45.506;-122.806;2022-08-03T07:19:26;100633.25;;;29.25;37.05
50854;BME280;44154;45.506;-122.806;2022-08-03T07:21:53;100644.53;;;29.29;37.04
50854;BME280;44154;45.506;-122.806;2022-08-03T07:24:19;100645.41;;;29.24;36.92
50854;BME280;44154;45.506;-122.806;2022-08-03T07:26:45;100637.19;;;29.14;36.84
50854;BME280;44154;45.506;-122.806;2022-08-03T07:29:11;100644.59;;;29.18;37.06
50854;BME280;44154;45.506;-122.806;2022-08-03T07:31:37;100650.09;;;29.18;37.30
50854;BME280;44154;45.506;-122.806;2022-08-03T07:34:03;100653.44;;;29.15;37.12
50854;BME280;44154;45.506;-122.806;2022-08-03T07:36:30;100651.56;;;29.11;36.89
50854;BME280;44154;45.506;-122.806;2022-08-03T07:38:57;100654.59;;;29.09;37.01
50854;BME280;44154;45.506;-122.806;2022-08-03T07:41:23;100659.59;;;29.07;37.14
50854;BME280;44154;45.506;-122.806;2022-08-03T07:43:49;100645.34;;;29.00;37.11
50854;BME280;44154;45.506;-122.806;2022-08-03T07:46:15;100644.00;;;28.92;37.18
50854;BME280;44154;45.506;-122.806;2022-08-03T07:48:42;100659.91;;;29.00;37.45
50854;BME280;44154;45.506;-122.806;2022-08-03T07:51:08;100666.53;;;28.99;37.06
50854;BME280;44154;45.506;-122.806;2022-08-03T07:53:34;100659.38;;;28.98;37.06
50854;BME280;44154;45.506;-122.806;2022-08-03T07:56:00;100653.94;;;28.88;36.91
50854;BME280;44154;45.506;-122.806;2022-08-03T07:58:26;100645.47;;;28.84;37.13
50854;BME280;44154;45.506;-122.806;2022-08-03T08:00:52;100637.22;;;28.79;37.23
50854;BME280;44154;45.506;-122.806;2022-08-03T08:03:19;100645.16;;;28.86;37.38
50854;BME280;44154;45.506;-122.806;2022-08-03T08:05:46;100655.34;;;28.85;37.35
50854;BME280;44154;45.506;-122.806;2022-08-03T08:08:13;100652.34;;;28.82;37.25
50854;BME280;44154;45.506;-122.806;2022-08-03T08:10:39;100653.47;;;28.81;37.32
50854;BME280;44154;45.506;-122.806;2022-08-03T08:13:05;100641.13;;;28.73;37.43
50854;BME280;44154;45.506;-122.806;2022-08-03T08:15:31;100653.81;;;28.74;37.62
50854;BME280;44154;45.506;-122.806;2022-08-03T08:18:00;100652.16;;;28.73;37.68
50854;BME280;44154;45.506;-122.806;2022-08-03T08:20:32;100642.53;;;28.70;37.28
50854;BME280;44154;45.506;-122.806;2022-08-03T08:23:01;100651.06;;;28.69;37.75
50854;BME280;44154;45.506;-122.806;2022-08-03T08:25:29;100646.66;;;28.68;37.62
50854;BME280;44154;45.506;-122.806;2022-08-03T08:27:56;100646.72;;;28.63;37.28
50854;BME280;44154;45.506;-122.806;2022-08-03T08:30:23;100653.03;;;28.63;37.28
50854;BME280;44154;45.506;-122.806;2022-08-03T08:32:49;100623.91;;;28.52;37.34
50854;BME280;44154;45.506;-122.806;2022-08-03T08:35:17;100640.13;;;28.59;37.52
50854;BME280;44154;45.506;-122.806;2022-08-03T08:37:43;100625.34;;;28.44;37.23
50854;BME280;44154;45.506;-122.806;2022-08-03T08:40:10;100632.16;;;28.52;37.24
50854;BME280;44154;45.506;-122.806;2022-08-03T08:42:41;100637.44;;;28.48;37.61
50854;BME280;44154;45.506;-122.806;2022-08-03T08:45:09;100636.31;;;28.49;37.54
50854;BME280;44154;45.506;-122.806;2022-08-03T08:47:40;100634.97;;;28.47;37.28
50854;BME280;44154;45.506;-122.806;2022-08-03T08:50:09;100639.09;;;28.44;37.26
50854;BME280;44154;45.506;-122.806;2022-08-03T08:52:39;100636.06;;;28.46;37.59
50854;BME280;44154;45.506;-122.806;2022-08-03T08:55:08;100635.88;;;28.32;37.53
50854;BME280;44154;45.506;-122.806;2022-08-03T08:57:49;100616.16;;;28.19;37.71
50854;BME280;44154;45.506;-122.806;2022-08-03T09:00:17;100630.34;;;28.37;37.65
50854;BME280;44154;45.506;-122.806;2022-08-03T09:02:44;100633.41;;;28.30;37.63
50854;BME280;44154;45.506;-122.806;2022-08-03T09:05:12;100640.28;;;28.33;37.75
50854;BME280;44154;45.506;-122.806;2022-08-03T09:07:40;100635.34;;;28.30;37.72
50854;BME280;44154;45.506;-122.806;2022-08-03T09:10:07;100621.38;;;28.16;37.70
50854;BME280;44154;45.506;-122.806;2022-08-03T09:13:03;100647.22;;;28.20;37.65
50854;BME280;44154;45.506;-122.806;2022-08-03T09:15:31;100651.63;;;28.21;37.81
50854;BME280;44154;45.506;-122.806;2022-08-03T09:17:59;100652.22;;;28.18;37.78
50854;BME280;44154;45.506;-122.806;2022-08-03T09:20:30;100618.19;;;27.93;37.70
50854;BME280;44154;45.506;-122.806;2022-08-03T09:25:35;100645.34;;;28.10;37.56
50854;BME280;44154;45.506;-122.806;2022-08-03T09:28:19;100654.72;;;28.09;37.57
50854;BME280;44154;45.506;-122.806;2022-08-03T09:30:57;100651.72;;;28.06;37.78
50854;BME280;44154;45.506;-122.806;2022-08-03T09:33:23;100652.50;;;28.06;37.96
50854;BME280;44154;45.506;-122.806;2022-08-03T09:35:50;100662.75;;;28.00;38.02
50854;BME280;44154;45.506;-122.806;2022-08-03T09:40:44;100654.75;;;27.99;37.73
50854;BME280;44154;45.506;-122.806;2022-08-03T09:43:11;100591.09;;;27.56;37.83
50854;BME280;44154;45.506;-122.806;2022-08-03T09:45:38;100649.25;;;27.94;37.85
50854;BME280;44154;45.506;-122.806;2022-08-03T09:48:23;100646.22;;;27.90;37.93
50854;BME280;44154;45.506;-122.806;2022-08-03T09:50:52;100653.97;;;27.88;38.09
50854;BME280;44154;45.506;-122.806;2022-08-03T09:53:19;100650.69;;;27.86;38.43
50854;BME280;44154;45.506;-122.806;2022-08-03T09:55:56;100649.31;;;27.83;38.32
50854;BME280;44154;45.506;-122.806;2022-08-03T09:58:24;100659.75;;;27.81;38.40
50854;BME280;44154;45.506;-122.806;2022-08-03T10:03:38;100649.06;;;27.75;38.27
50854;BME280;44154;45.506;-122.806;2022-08-03T10:06:16;100655.94;;;27.72;38.14
50854;BME280;44154;45.506;-122.806;2022-08-03T10:08:45;100658.13;;;27.70;38.36
50854;BME280;44154;45.506;-122.806;2022-08-03T10:11:11;100651.28;;;27.62;38.48
50854;BME280;44154;45.506;-122.806;2022-08-03T10:13:37;100657.31;;;27.64;38.74
50854;BME280;44154;45.506;-122.806;2022-08-03T10:16:04;100656.78;;;27.62;38.76
50854;BME280;44154;45.506;-122.806;2022-08-03T10:18:31;100654.31;;;27.61;38.46
50854;BME280;44154;45.506;-122.806;2022-08-03T10:21:07;100643.06;;;27.52;38.79
50854;BME280;44154;45.506;-122.806;2022-08-03T10:23:37;100657.91;;;27.56;38.69
50854;BME280;44154;45.506;-122.806;2022-08-03T10:26:06;100654.59;;;27.54;38.80
50854;BME280;44154;45.506;-122.806;2022-08-03T10:28:39;100663.41;;;27.51;38.73
50854;BME280;44154;45.506;-122.806;2022-08-03T10:31:07;100660.13;;;27.49;38.84
50854;BME280;44154;45.506;-122.806;2022-08-03T10:33:38;100669.75;;;27.46;38.92
50854;BME280;44154;45.506;-122.806;2022-08-03T10:36:07;100659.31;;;27.43;38.97
50854;BME280;44154;45.506;-122.806;2022-08-03T10:38:39;100659.59;;;27.42;38.59
50854;BME280;44154;45.506;-122.806;2022-08-03T10:41:11;100662.91;;;27.39;38.92
50854;BME280;44154;45.506;-122.806;2022-08-03T10:46:29;100638.72;;;27.20;38.77
50854;BME280;44154;45.506;-122.806;2022-08-03T10:48:56;100662.88;;;27.33;38.71
50854;BME280;44154;45.506;-122.806;2022-08-03T10:51:23;100636.53;;;27.17;39.00
50854;BME280;44154;45.506;-122.806;2022-08-03T10:53:49;100651.34;;;27.26;38.91
50854;BME280;44154;45.506;-122.806;2022-08-03T10:56:45;100646.94;;;27.25;38.78
50854;BME280;44154;45.506;-122.806;2022-08-03T11:02:10;100628.28;;;27.12;39.15
50854;BME280;44154;45.506;-122.806;2022-08-03T11:04:38;100646.69;;;27.22;38.92
50854;BME280;44154;45.506;-122.806;2022-08-03T11:07:25;100651.88;;;27.18;39.11
50854;BME280;44154;45.506;-122.806;2022-08-03T11:09:54;100651.63;;;27.14;38.89
50854;BME280;44154;45.506;-122.806;2022-08-03T11:14:50;100647.78;;;27.10;39.02
50854;BME280;44154;45.506;-122.806;2022-08-03T11:17:18;100647.25;;;27.08;39.11
50854;BME280;44154;45.506;-122.806;2022-08-03T11:19:49;100620.34;;;26.90;39.46
50854;BME280;44154;45.506;-122.806;2022-08-03T11:22:16;100633.53;;;26.93;39.33
50854;BME280;44154;45.506;-122.806;2022-08-03T11:30:09;100637.66;;;26.95;39.48
50854;BME280;44154;45.506;-122.806;2022-08-03T11:35:31;100642.03;;;26.91;39.54
50854;BME280;44154;45.506;-122.806;2022-08-03T11:43:50;100649.72;;;26.84;39.56
50854;BME280;44154;45.506;-122.806;2022-08-03T11:48:36;100641.75;;;26.77;39.91
50854;BME280;44154;45.506;-122.806;2022-08-03T11:51:04;100630.44;;;26.63;39.94
50854;BME280;44154;45.506;-122.806;2022-08-03T11:53:31;100649.16;;;26.72;39.71
50854;BME280;44154;45.506;-122.806;2022-08-03T11:56:01;100649.72;;;26.69;39.94
50854;BME280;44154;45.506;-122.806;2022-08-03T11:58:28;100628.25;;;26.55;39.93
50854;BME280;44154;45.506;-122.806;2022-08-03T12:01:05;100641.41;;;26.63;40.06
50854;BME280;44154;45.506;-122.806;2022-08-03T12:03:33;100643.06;;;26.64;39.96
50854;BME280;44154;45.506;-122.806;2022-08-03T12:05:59;100614.81;;;26.43;40.10
50854;BME280;44154;45.506;-122.806;2022-08-03T12:10:54;100651.31;;;26.59;40.25
50854;BME280;44154;45.506;-122.806;2022-08-03T12:13:21;100643.59;;;26.56;40.01
50854;BME280;44154;45.506;-122.806;2022-08-03T12:15:56;100640.88;;;26.56;40.03
50854;BME280;44154;45.506;-122.806;2022-08-03T12:18:24;100637.31;;;26.51;40.43
50854;BME280;44154;45.506;-122.806;2022-08-03T12:20:52;100645.78;;;26.49;39.94
50854;BME280;44154;45.506;-122.806;2022-08-03T12:23:19;100637.00;;;26.42;40.13
50854;BME280;44154;45.506;-122.806;2022-08-03T12:25:45;100634.81;;;26.44;40.31
50854;BME280;44154;45.506;-122.806;2022-08-03T12:28:17;100647.97;;;26.42;40.10
50854;BME280;44154;45.506;-122.806;2022-08-03T12:30:47;100634.81;;;26.39;40.54
50854;BME280;44154;45.506;-122.806;2022-08-03T12:35:39;100631.78;;;26.35;40.51
50854;BME280;44154;45.506;-122.806;2022-08-03T12:38:05;100635.91;;;26.33;40.47
50854;BME280;44154;45.506;-122.806;2022-08-03T12:40:32;100626.56;;;26.34;40.36
50854;BME280;44154;45.506;-122.806;2022-08-03T12:42:58;100629.59;;;26.32;40.54
50854;BME280;44154;45.506;-122.806;2022-08-03T12:45:26;100635.59;;;26.29;40.39
50854;BME280;44154;45.506;-122.806;2022-08-03T12:50:31;100630.13;;;26.24;40.49
50854;BME280;44154;45.506;-122.806;2022-08-03T12:52:58;100635.88;;;26.22;40.43
50854;BME280;44154;45.506;-122.806;2022-08-03T12:55:25;100649.00;;;26.20;40.72
50854;BME280;44154;45.506;-122.806;2022-08-03T12:58:07;100636.41;;;26.19;40.62
50854;BME280;44154;45.506;-122.806;2022-08-03T13:00:35;100625.97;;;26.11;40.63
50854;BME280;44154;45.506;-122.806;2022-08-03T13:03:05;100606.97;;;25.99;40.69
50854;BME280;44154;45.506;-122.806;2022-08-03T13:05:42;100638.28;;;26.08;40.54
50854;BME280;44154;45.506;-122.806;2022-08-03T13:10:45;100636.28;;;25.98;40.63
50854;BME280;44154;45.506;-122.806;2022-08-03T13:13:11;100633.00;;;25.96;40.46
50854;BME280;44154;45.506;-122.806;2022-08-03T13:15:37;100638.50;;;25.96;40.54
50854;BME280;44154;45.506;-122.806;2022-08-03T13:18:04;100641.78;;;25.93;40.99
50854;BME280;44154;45.506;-122.806;2022-08-03T13:20:30;100578.00;;;25.50;40.53
50854;BME280;44154;45.506;-122.806;2022-08-03T13:22:56;100646.66;;;25.81;40.95
50854;BME280;44154;45.506;-122.806;2022-08-03T13:25:23;100648.59;;;25.86;41.16